Main page
METAR-TAF:

METAR-TAF

Airports :

International Airport Irkutsk

Irkutsk, Russia

latitude: 52-16N, longitude: 104-19E, elevation: 513 m

Current weather observation

The report was made 40 minutes ago, at 21:00 UTC
Wind 6 kt from the East
Temperature -2°C
Humidity 100%
Pressure 1020 hPa
Visibility 10 km or more
no clouds below 1500 m and no cumulonimbus

METAR: UIII 172100Z 09003MPS CAVOK M02/M02 Q1020 R12/60D NOSIG RMK QFE723/0964

Time: 05:40 (21:40 UTC)

Forecast

The report was made 1 hour and 40 minutes ago, at 20:00 UTC
Forecast valid from 17 at 21 UTC to 18 at 21 UTC
Wind 6 kt from the South/Southeast
Visibility 10 km or more

TAF: UIII 172000Z 1721/1821 16003MPS 9999 NSC

Weather observations and forecasts of more than 4000 airports (METAR and TAF reports).

The available stations are represented by yellow and red dots on the map.

Hover mouse over dot to see the name of the station.

Then click to see weather observations and forecasts.

To change the map : click on the green buttons with a black cross to zoom in, on the green button with a dash to zoom out, or on the green arrows for adjacent maps.


METAR-TAF: